Time;durP1;ratioP1;P1;durP2;ratioP2;P2;SDS_P1;SDS_P2;PMS_P1;PMS_P2;Temp;Humidity;BMP_temperature;BMP_pressure;BME280_temperature;BME280_humidity;BME280_pressure;Samples;Min_cycle;Max_cycle;Signal;HPM_P1;HPM_P2
2022/01/20 00:00:19;;;;;;;24.92;10.57;;;3.70;99.90;;;;;;5037608;28;20025;-63
2022/01/20 00:02:47;;;;;;;20.15;8.88;;;3.70;99.90;;;;;;5037476;28;20392;-63
2022/01/20 00:26:55;;;;;;;17.85;8.70;;;3.60;99.90;;;;;;4993589;28;20096;-63
2022/01/20 00:29:30;;;;;;;17.27;9.02;;;3.70;99.90;;;;;;5030010;28;20037;-63
2022/01/20 00:32:11;;;;;;;18.25;7.72;;;3.70;99.90;;;;;;5036600;28;20028;-63
2022/01/20 00:35:26;;;;;;;16.13;7.55;;;3.70;99.90;;;;;;5036847;28;20468;-62
2022/01/20 00:37:26;;;;;;;20.05;8.20;;;3.70;99.90;;;;;;5043790;28;20033;-63
2022/01/20 00:39:51;;;;;;;18.92;9.02;;;3.60;99.90;;;;;;5054831;28;20025;-63
2022/01/20 00:42:18;;;;;;;18.13;8.55;;;3.50;99.90;;;;;;5054531;28;20029;-63
2022/01/20 00:44:45;;;;;;;18.38;8.25;;;3.50;99.90;;;;;;5054218;28;20125;-63
2022/01/20 00:47:11;;;;;;;17.77;7.22;;;3.40;99.90;;;;;;5054459;28;20029;-63
2022/01/20 00:49:37;;;;;;;17.45;7.95;;;3.60;99.90;;;;;;5054421;28;20082;-63
2022/01/20 00:52:04;;;;;;;16.00;7.53;;;3.50;99.90;;;;;;5054268;28;20033;-63
2022/01/20 00:54:30;;;;;;;15.82;7.57;;;3.70;99.90;;;;;;5054329;28;20090;-64
2022/01/20 00:56:57;;;;;;;13.38;6.63;;;3.70;99.90;;;;;;5054306;28;20025;-63
2022/01/20 00:59:22;;;;;;;16.42;7.55;;;3.70;99.90;;;;;;5054273;28;20021;-63
2022/01/20 01:01:48;;;;;;;16.13;7.93;;;3.70;99.90;;;;;;5054239;28;20031;-63
2022/01/20 01:04:14;;;;;;;17.23;8.02;;;3.70;99.90;;;;;;5053313;28;20033;-63
2022/01/20 01:09:18;;;;;;;13.73;7.28;;;3.70;99.90;;;;;;5054112;28;20055;-63
2022/01/20 01:11:46;;;;;;;14.52;6.80;;;3.80;99.90;;;;;;5036119;28;20125;-63
2022/01/20 01:14:12;;;;;;;14.45;6.63;;;3.90;99.90;;;;;;5054187;28;20429;-63
2022/01/20 01:22:21;;;;;;;13.63;7.18;;;4.00;99.90;;;;;;5054139;28;20056;-63
2022/01/20 01:24:53;;;;;;;10.65;5.65;;;4.00;99.90;;;;;;5054094;28;20021;-64
2022/01/20 01:27:24;;;;;;;12.90;5.68;;;4.00;99.90;;;;;;5036200;28;20392;-63
2022/01/20 01:30:09;;;;;;;10.98;6.18;;;4.10;99.90;;;;;;5054202;28;20025;-63
2022/01/20 01:35:11;;;;;;;11.45;5.97;;;4.10;99.90;;;;;;5053826;28;20047;-64
2022/01/20 01:38:25;;;;;;;15.55;6.53;;;4.20;99.90;;;;;;5053719;28;20029;-63
2022/01/20 01:40:29;;;;;;;11.88;5.35;;;4.20;99.90;;;;;;5053205;28;20029;-63
2022/01/20 01:42:56;;;;;;;11.50;6.03;;;4.20;99.90;;;;;;5053931;28;20036;-63
2022/01/20 01:45:29;;;;;;;12.30;5.85;;;4.20;99.90;;;;;;5053664;28;20457;-63
2022/01/20 01:47:55;;;;;;;10.07;5.35;;;4.10;99.90;;;;;;5054137;28;20025;-63
2022/01/20 01:50:22;;;;;;;12.52;5.68;;;4.10;99.90;;;;;;5035726;28;20064;-63
2022/01/20 01:52:48;;;;;;;11.50;5.53;;;4.00;99.90;;;;;;5053506;28;20028;-63
2022/01/20 01:55:14;;;;;;;10.55;5.45;;;4.00;99.90;;;;;;5053590;28;20029;-63
2022/01/20 01:57:39;;;;;;;10.43;4.90;;;3.90;99.90;;;;;;5053538;28;20053;-63
2022/01/20 02:00:07;;;;;;;11.65;5.95;;;3.90;99.90;;;;;;5053255;28;20083;-63
2022/01/20 02:02:33;;;;;;;9.90;5.10;;;3.80;99.90;;;;;;5053530;28;20033;-63
2022/01/20 02:05:02;;;;;;;9.82;5.60;;;3.90;99.90;;;;;;5053434;28;20155;-63
2022/01/20 02:21:01;;;;;;;7.30;4.63;;;4.40;99.90;;;;;;5057244;28;20432;-63
2022/01/20 02:23:27;;;;;;;10.65;4.80;;;4.40;99.90;;;;;;5039280;28;20029;-63
2022/01/20 02:25:53;;;;;;;11.27;5.20;;;4.50;99.90;;;;;;5057699;28;20066;-64
2022/01/20 02:28:19;;;;;;;9.55;4.72;;;4.50;99.90;;;;;;5057361;28;20025;-63
2022/01/20 02:30:45;;;;;;;8.15;4.15;;;4.50;99.90;;;;;;5056974;28;20029;-63
2022/01/20 02:33:16;;;;;;;11.25;4.93;;;4.50;99.90;;;;;;5056949;28;20029;-63
2022/01/20 02:35:53;;;;;;;7.10;4.22;;;4.50;99.90;;;;;;5039114;28;20025;-63
2022/01/20 02:46:03;;;;;;;10.45;4.50;;;4.50;99.90;;;;;;5056547;28;20032;-63
2022/01/20 02:48:28;;;;;;;10.50;4.57;;;4.50;99.90;;;;;;5038931;28;20025;-63
2022/01/20 02:50:54;;;;;;;7.57;4.05;;;4.50;99.90;;;;;;5056579;28;20465;-63
2022/01/20 02:53:20;;;;;;;5.70;3.78;;;4.50;99.90;;;;;;5056622;28;20033;-63
2022/01/20 02:55:45;;;;;;;7.25;3.72;;;4.60;99.90;;;;;;5056968;28;20099;-63
2022/01/20 02:58:11;;;;;;;5.97;3.55;;;4.60;99.90;;;;;;5038618;28;20544;-63
2022/01/20 03:00:38;;;;;;;6.93;3.28;;;4.70;99.90;;;;;;5056490;28;20025;-63
2022/01/20 03:03:03;;;;;;;5.30;3.53;;;4.70;99.90;;;;;;5056492;28;20025;-63
2022/01/20 03:05:31;;;;;;;6.53;3.42;;;4.80;99.90;;;;;;5056367;28;20075;-63
2022/01/20 03:07:57;;;;;;;6.00;3.33;;;4.80;99.90;;;;;;5056326;28;20423;-63
2022/01/20 03:10:23;;;;;;;9.25;3.83;;;4.90;99.90;;;;;;5076476;28;20072;-63
2022/01/20 03:12:50;;;;;;;6.70;3.20;;;4.90;99.90;;;;;;5058245;28;20464;-63
2022/01/20 03:15:16;;;;;;;6.40;3.08;;;4.90;99.90;;;;;;5058336;28;20032;-63
2022/01/20 03:17:42;;;;;;;7.72;2.92;;;5.00;99.90;;;;;;5075964;28;20078;-63
2022/01/20 03:20:08;;;;;;;7.65;3.22;;;5.00;99.90;;;;;;5076184;28;20063;-63
2022/01/20 03:22:33;;;;;;;4.63;3.38;;;5.00;99.90;;;;;;5076194;28;20384;-63
2022/01/20 03:24:59;;;;;;;6.78;3.42;;;4.90;99.90;;;;;;5075773;28;20063;-63
2022/01/20 03:27:25;;;;;;;8.27;3.38;;;4.90;99.90;;;;;;5075036;28;20373;-63
2022/01/20 03:29:51;;;;;;;6.97;3.30;;;4.90;99.90;;;;;;5076344;28;20082;-63
2022/01/20 03:32:16;;;;;;;6.88;3.70;;;4.90;99.90;;;;;;5057852;28;20127;-63
2022/01/20 03:34:42;;;;;;;6.22;3.83;;;4.90;99.90;;;;;;5058011;28;20035;-63
2022/01/20 03:37:08;;;;;;;10.32;3.88;;;4.90;99.90;;;;;;5057898;28;20365;-63
2022/01/20 03:39:34;;;;;;;5.95;3.75;;;4.90;99.90;;;;;;5075812;28;20029;-63
2022/01/20 03:41:59;;;;;;;7.85;3.20;;;4.80;99.90;;;;;;5075772;28;20102;-63
2022/01/20 03:47:10;;;;;;;5.70;3.63;;;4.90;99.90;;;;;;5075724;28;20108;-63
2022/01/20 03:49:51;;;;;;;4.47;2.95;;;4.90;99.90;;;;;;5075607;28;20107;-63
2022/01/20 03:52:17;;;;;;;6.07;3.42;;;4.90;99.90;;;;;;5057544;28;20035;-63
2022/01/20 03:54:43;;;;;;;4.38;2.42;;;4.90;99.90;;;;;;5075204;28;20029;-63
2022/01/20 03:57:09;;;;;;;5.82;3.53;;;5.00;99.90;;;;;;5057563;28;20021;-63
2022/01/20 03:59:34;;;;;;;8.35;3.55;;;4.90;99.90;;;;;;5057700;28;20029;-63
2022/01/20 04:02:00;;;;;;;6.45;3.20;;;5.00;99.90;;;;;;5075917;28;20384;-63
2022/01/20 04:04:26;;;;;;;5.28;2.72;;;5.00;99.90;;;;;;5057305;28;20077;-63
2022/01/20 04:06:51;;;;;;;5.30;2.92;;;5.00;99.90;;;;;;5074934;28;20052;-63
2022/01/20 04:09:17;;;;;;;4.82;2.85;;;5.00;99.90;;;;;;5063739;28;20049;-63
2022/01/20 04:11:43;;;;;;;5.80;3.30;;;5.00;99.90;;;;;;5054769;28;20029;-63
2022/01/20 04:14:12;;;;;;;6.00;2.60;;;5.00;99.90;;;;;;5037186;28;20029;-63
2022/01/20 04:19:24;;;;;;;4.25;2.72;;;5.00;99.90;;;;;;5055083;28;20068;-63
2022/01/20 04:21:49;;;;;;;4.43;2.75;;;5.00;99.90;;;;;;5054954;28;20060;-63
2022/01/20 04:24:16;;;;;;;5.22;3.03;;;5.00;99.90;;;;;;5036946;28;20437;-63
2022/01/20 04:26:43;;;;;;;5.75;3.28;;;4.90;99.90;;;;;;5037139;28;20025;-63
2022/01/20 04:29:11;;;;;;;5.95;3.35;;;5.00;99.90;;;;;;5054789;28;20024;-63
2022/01/20 04:31:38;;;;;;;6.47;2.70;;;4.90;99.90;;;;;;5054742;28;20047;-63
2022/01/20 04:34:05;;;;;;;5.90;2.85;;;4.90;99.90;;;;;;5036516;28;20029;-63
2022/01/20 04:36:34;;;;;;;6.30;2.80;;;4.90;99.90;;;;;;5054673;28;20025;-63
2022/01/20 04:39:01;;;;;;;5.82;2.85;;;4.90;99.90;;;;;;5054510;28;20021;-63
2022/01/20 04:41:30;;;;;;;3.97;2.50;;;4.90;99.90;;;;;;5054587;28;20033;-63
2022/01/20 04:44:00;;;;;;;5.47;2.78;;;4.90;99.90;;;;;;5054495;28;20021;-63
2022/01/20 04:46:43;;;;;;;4.93;2.63;;;4.90;99.90;;;;;;5054572;28;20033;-63
2022/01/20 04:57:17;;;;;;;5.20;2.95;;;4.90;99.90;;;;;;5054492;28;20036;-63
2022/01/20 04:59:47;;;;;;;6.10;2.88;;;4.80;99.90;;;;;;5054332;28;20032;-63
2022/01/20 05:02:13;;;;;;;6.38;3.10;;;4.80;99.90;;;;;;5054776;28;20035;-63
2022/01/20 05:04:40;;;;;;;4.80;2.75;;;4.80;99.90;;;;;;5054166;28;20473;-63
2022/01/20 05:07:06;;;;;;;7.25;3.17;;;4.80;99.90;;;;;;5036640;28;20079;-63
2022/01/20 05:09:33;;;;;;;5.35;2.58;;;4.80;99.90;;;;;;5053968;28;20072;-63
2022/01/20 05:12:00;;;;;;;5.68;2.88;;;4.70;99.90;;;;;;5054127;28;20376;-63
2022/01/20 05:14:30;;;;;;;4.22;2.33;;;4.70;99.90;;;;;;5054000;28;20033;-62
2022/01/20 05:16:57;;;;;;;5.95;2.78;;;4.70;99.90;;;;;;5054329;28;20051;-63
2022/01/20 05:19:41;;;;;;;5.55;2.80;;;4.70;99.90;;;;;;5036546;28;20453;-65
2022/01/20 05:22:07;;;;;;;6.10;2.63;;;4.70;99.90;;;;;;5036186;28;20453;-65
2022/01/20 05:24:33;;;;;;;5.43;2.50;;;4.70;99.90;;;;;;5054084;28;20025;-64
2022/01/20 05:26:58;;;;;;;4.32;2.38;;;4.70;99.90;;;;;;5054423;28;20032;-65
2022/01/20 05:29:25;;;;;;;3.60;2.45;;;4.70;99.90;;;;;;5036589;28;20052;-65
2022/01/20 05:31:51;;;;;;;5.13;2.58;;;4.70;99.90;;;;;;5053906;28;20033;-65
2022/01/20 05:34:18;;;;;;;4.18;2.72;;;4.70;99.90;;;;;;5053507;28;20534;-64
2022/01/20 05:36:47;;;;;;;4.20;2.88;;;4.70;99.90;;;;;;5053861;28;20021;-65
2022/01/20 05:39:12;;;;;;;4.55;2.67;;;4.60;99.90;;;;;;5035937;28;20082;-65
2022/01/20 05:41:38;;;;;;;4.80;2.42;;;4.60;99.90;;;;;;5035895;28;20033;-65
2022/01/20 05:44:04;;;;;;;4.82;2.60;;;4.60;99.90;;;;;;5053285;28;20041;-64
2022/01/20 05:46:36;;;;;;;5.13;2.33;;;4.60;99.90;;;;;;5053552;28;20033;-65
2022/01/20 05:49:09;;;;;;;3.47;2.10;;;4.60;99.90;;;;;;5036111;28;20124;-65
2022/01/20 05:51:39;;;;;;;3.40;2.42;;;4.50;99.90;;;;;;5055713;28;20044;-65
2022/01/20 05:54:06;;;;;;;3.47;2.30;;;4.50;99.90;;;;;;5057684;28;20029;-65
2022/01/20 05:56:31;;;;;;;4.05;2.35;;;4.50;99.90;;;;;;5039759;28;20532;-65
2022/01/20 05:58:59;;;;;;;4.72;2.88;;;4.50;99.90;;;;;;5039673;28;20120;-65
2022/01/20 06:01:26;;;;;;;7.22;2.38;;;4.50;99.90;;;;;;5039556;28;20044;-64
2022/01/20 06:03:51;;;;;;;5.25;2.22;;;4.40;99.90;;;;;;5057439;28;20453;-65
2022/01/20 06:06:17;;;;;;;4.82;2.30;;;4.40;99.90;;;;;;5057182;28;20087;-65
2022/01/20 06:08:43;;;;;;;3.78;2.28;;;4.40;99.90;;;;;;5057358;28;20107;-66
2022/01/20 06:11:09;;;;;;;3.15;2.33;;;4.40;99.90;;;;;;5039425;28;20069;-66
2022/01/20 06:13:53;;;;;;;2.90;1.90;;;4.30;99.90;;;;;;5039227;28;20099;-68
2022/01/20 06:16:21;;;;;;;3.28;1.92;;;4.40;99.90;;;;;;5038894;28;20453;-65
2022/01/20 06:18:47;;;;;;;2.13;1.63;;;4.30;99.90;;;;;;5056314;28;20033;-64
2022/01/20 06:21:13;;;;;;;2.80;2.05;;;4.30;99.90;;;;;;5070566;28;20457;-65
2022/01/20 06:23:40;;;;;;;3.17;2.05;;;4.30;99.90;;;;;;5058799;28;20074;-64
2022/01/20 06:26:06;;;;;;;3.25;2.33;;;4.30;99.90;;;;;;5077031;28;20031;-64
2022/01/20 06:28:40;;;;;;;5.38;2.10;;;4.30;99.90;;;;;;5076543;28;20028;-64
2022/01/20 06:31:06;;;;;;;4.72;1.95;;;4.30;99.90;;;;;;5058964;28;20060;-64
2022/01/20 06:33:32;;;;;;;3.53;2.10;;;4.30;99.90;;;;;;5076632;28;20032;-64
2022/01/20 06:35:58;;;;;;;3.28;2.03;;;4.20;99.90;;;;;;5075965;28;20114;-64
2022/01/20 06:38:24;;;;;;;5.70;2.40;;;4.20;99.90;;;;;;5076596;28;20031;-64
2022/01/20 06:40:50;;;;;;;4.75;2.45;;;4.20;99.90;;;;;;5060335;28;20420;-64
2022/01/20 06:43:17;;;;;;;4.40;2.38;;;4.20;99.90;;;;;;5038510;28;20078;-64
2022/01/20 06:45:43;;;;;;;5.00;2.25;;;4.20;99.90;;;;;;5056750;28;20103;-64
2022/01/20 06:48:09;;;;;;;5.70;2.15;;;4.20;99.90;;;;;;5038780;28;20029;-64
2022/01/20 06:50:34;;;;;;;3.55;2.17;;;4.20;99.90;;;;;;5056373;28;20025;-65
2022/01/20 06:53:00;;;;;;;3.15;2.28;;;4.20;99.90;;;;;;5055528;28;20059;-64
2022/01/20 06:55:26;;;;;;;4.00;2.08;;;4.20;99.90;;;;;;5056239;28;20036;-64
2022/01/20 06:57:52;;;;;;;5.28;1.73;;;4.20;99.90;;;;;;5056338;28;20102;-64
2022/01/20 07:00:20;;;;;;;5.43;2.60;;;4.10;99.90;;;;;;5056484;28;20025;-65
2022/01/20 07:02:47;;;;;;;7.88;3.10;;;4.10;99.90;;;;;;5056054;28;20349;-64
2022/01/20 07:05:16;;;;;;;2.85;1.90;;;4.10;99.90;;;;;;5056194;28;20040;-64
2022/01/20 07:07:42;;;;;;;3.28;1.83;;;4.10;99.90;;;;;;5037841;28;20435;-64
2022/01/20 07:10:10;;;;;;;4.55;2.65;;;4.10;99.90;;;;;;5070939;28;20054;-64
2022/01/20 07:12:54;;;;;;;3.67;2.20;;;4.10;99.90;;;;;;5075722;28;20036;-64
2022/01/20 07:15:20;;;;;;;5.32;2.35;;;4.10;99.90;;;;;;5075778;28;20422;-64
2022/01/20 07:17:46;;;;;;;3.72;1.95;;;4.00;99.90;;;;;;5093634;28;20028;-64
2022/01/20 07:20:13;;;;;;;3.80;2.30;;;4.00;99.90;;;;;;5094355;28;20028;-67
2022/01/20 07:22:39;;;;;;;3.95;2.00;;;4.00;99.90;;;;;;5090556;28;20103;-64
2022/01/20 07:25:05;;;;;;;3.60;2.08;;;4.00;99.90;;;;;;5075887;28;20058;-64
2022/01/20 07:27:30;;;;;;;3.80;2.30;;;4.00;99.90;;;;;;5074768;28;20486;-64
2022/01/20 07:29:56;;;;;;;3.50;2.20;;;4.00;99.90;;;;;;5075086;28;20032;-64
2022/01/20 07:32:22;;;;;;;3.55;1.95;;;4.00;99.90;;;;;;5092906;28;20032;-64
2022/01/20 07:34:47;;;;;;;4.22;2.17;;;4.00;99.90;;;;;;5089441;28;20033;-64
2022/01/20 07:37:13;;;;;;;5.18;2.00;;;4.00;99.90;;;;;;5075648;28;20474;-64
2022/01/20 07:39:39;;;;;;;2.97;1.90;;;4.00;99.90;;;;;;5075726;28;20035;-64
2022/01/20 07:42:05;;;;;;;3.05;1.77;;;4.10;99.90;;;;;;5079476;28;20044;-64
2022/01/20 07:44:30;;;;;;;3.55;2.03;;;4.10;99.90;;;;;;5092594;28;20052;-64
2022/01/20 07:46:57;;;;;;;4.90;2.20;;;4.10;99.90;;;;;;5093050;28;20486;-64
2022/01/20 07:49:23;;;;;;;4.75;2.17;;;4.10;99.90;;;;;;5094617;28;20030;-65
2022/01/20 07:51:48;;;;;;;3.85;1.77;;;4.10;99.90;;;;;;5094293;28;20032;-64
2022/01/20 07:54:14;;;;;;;2.97;2.17;;;4.20;99.90;;;;;;5095424;28;20040;-64
2022/01/20 07:56:40;;;;;;;3.25;2.10;;;4.20;99.90;;;;;;5094308;28;20103;-64
2022/01/20 07:59:06;;;;;;;2.25;1.90;;;4.10;99.90;;;;;;5093785;28;20038;-64
2022/01/20 08:01:32;;;;;;;3.42;2.10;;;4.20;99.90;;;;;;5081719;28;20036;-64
2022/01/20 08:03:58;;;;;;;4.10;1.85;;;4.20;99.90;;;;;;5075067;28;20051;-64
2022/01/20 08:06:23;;;;;;;3.28;2.08;;;4.10;99.90;;;;;;5090075;28;20133;-64
2022/01/20 08:08:53;;;;;;;3.72;2.17;;;4.20;99.90;;;;;;5088594;28;20059;-64
2022/01/20 08:11:37;;;;;;;3.25;1.60;;;4.10;99.90;;;;;;5075045;28;20024;-64
2022/01/20 08:14:02;;;;;;;3.00;1.77;;;4.20;99.90;;;;;;5074786;28;20033;-64
2022/01/20 08:16:28;;;;;;;5.72;1.98;;;4.20;99.90;;;;;;5073200;28;20483;-64
2022/01/20 08:18:54;;;;;;;3.88;2.15;;;4.20;99.90;;;;;;5074339;28;20108;-64
2022/01/20 08:21:20;;;;;;;3.40;2.08;;;4.20;99.90;;;;;;5074843;28;20456;-65
2022/01/20 08:23:45;;;;;;;2.78;1.58;;;4.20;99.90;;;;;;5044883;28;20463;-64
2022/01/20 08:26:11;;;;;;;2.75;1.80;;;4.20;99.90;;;;;;5067144;28;20104;-64
2022/01/20 08:28:37;;;;;;;1.98;1.58;;;4.30;99.90;;;;;;5056859;28;20021;-64
2022/01/20 08:31:06;;;;;;;2.75;1.67;;;4.20;99.90;;;;;;5055049;28;20028;-64
2022/01/20 08:33:32;;;;;;;3.55;1.52;;;4.20;99.90;;;;;;5074404;28;20032;-64
2022/01/20 08:35:57;;;;;;;3.22;1.58;;;4.20;99.90;;;;;;5055035;28;20032;-65
2022/01/20 08:38:23;;;;;;;3.10;2.03;;;4.10;99.90;;;;;;5056962;28;20028;-64
2022/01/20 08:40:49;;;;;;;2.38;1.20;;;4.10;99.90;;;;;;5074582;28;20111;-64
2022/01/20 08:43:14;;;;;;;4.13;1.80;;;4.10;99.90;;;;;;5053995;28;20119;-64
2022/01/20 08:45:43;;;;;;;3.08;1.80;;;4.10;99.90;;;;;;5050041;28;20028;-64
2022/01/20 08:48:12;;;;;;;2.55;1.73;;;4.10;99.90;;;;;;5054016;28;20398;-64
2022/01/20 08:50:38;;;;;;;2.63;1.50;;;4.00;99.90;;;;;;5054234;28;20162;-64
2022/01/20 08:53:04;;;;;;;3.63;1.40;;;4.00;99.90;;;;;;5054151;28;20041;-64
2022/01/20 08:55:30;;;;;;;3.10;1.55;;;4.00;99.90;;;;;;5054280;28;20418;-63
2022/01/20 08:57:58;;;;;;;3.17;1.88;;;4.00;99.90;;;;;;5036170;28;20472;-65
2022/01/20 09:00:30;;;;;;;1.95;1.60;;;4.00;99.90;;;;;;5039430;28;20032;-64
2022/01/20 09:02:56;;;;;;;1.50;1.38;;;4.00;99.90;;;;;;5056385;28;20125;-64
2022/01/20 09:05:22;;;;;;;3.08;1.52;;;3.90;99.90;;;;;;5063929;28;20025;-64
2022/01/20 09:07:48;;;;;;;3.38;1.50;;;3.90;99.90;;;;;;5074130;28;20025;-64
2022/01/20 09:10:19;;;;;;;2.28;1.85;;;3.90;99.90;;;;;;5089357;28;20055;-64
2022/01/20 09:15:28;;;;;;;1.85;1.10;;;3.80;99.90;;;;;;5092819;28;20032;-64
2022/01/20 09:18:00;;;;;;;4.75;1.60;;;3.80;99.90;;;;;;5072848;28;20025;-64
2022/01/20 09:20:27;;;;;;;2.35;1.52;;;4.60;99.90;;;;;;5092557;28;20058;-64
2022/01/20 09:22:54;;;;;;;5.70;1.35;;;4.00;99.90;;;;;;5078514;28;20097;-64
2022/01/20 09:25:40;;;;;;;2.55;1.75;;;4.10;99.90;;;;;;5072709;28;20381;-64
2022/01/20 09:28:06;;;;;;;2.10;1.05;;;4.20;99.90;;;;;;5074000;28;20033;-64
2022/01/20 09:30:32;;;;;;;1.80;1.45;;;4.30;99.90;;;;;;5072918;28;20100;-64
2022/01/20 09:35:48;;;;;;;2.22;1.30;;;4.40;99.90;;;;;;5073370;28;20135;-63
2022/01/20 09:38:14;;;;;;;1.33;1.10;;;4.50;99.90;;;;;;5073792;28;20055;-63
2022/01/20 09:40:41;;;;;;;2.50;1.42;;;4.50;99.90;;;;;;5073812;28;20432;-63
2022/01/20 09:43:10;;;;;;;1.67;1.52;;;4.50;99.90;;;;;;5073742;28;20029;-64
2022/01/20 09:45:37;;;;;;;1.55;1.27;;;4.60;99.90;;;;;;5072393;28;20066;-64
2022/01/20 09:48:03;;;;;;;1.73;1.17;;;4.60;99.90;;;;;;5073311;28;20028;-63
2022/01/20 09:50:29;;;;;;;1.83;1.17;;;4.60;99.90;;;;;;5073649;28;20036;-63
2022/01/20 09:53:01;;;;;;;1.33;1.10;;;4.60;99.90;;;;;;5073523;28;20043;-63
2022/01/20 09:55:30;;;;;;;1.48;1.38;;;4.70;99.90;;;;;;5072379;28;20039;-63
2022/01/20 09:57:56;;;;;;;;;;;4.70;99.90;;;;;;5072619;28;20464;-63
2022/01/20 10:00:22;;;;;;;1.33;0.95;;;4.70;99.90;;;;;;5073624;28;19923;-63
2022/01/20 10:02:53;;;;;;;1.80;1.33;;;4.70;99.90;;;;;;5072344;28;20357;-63
2022/01/20 10:05:49;;;;;;;1.88;1.38;;;4.70;99.90;;;;;;5073586;28;20028;-63
2022/01/20 10:08:23;;;;;;;1.20;1.10;;;4.70;99.90;;;;;;5054290;28;20048;-63
2022/01/20 10:11:07;;;;;;;2.00;1.40;;;4.70;99.90;;;;;;5053022;28;20040;-63
2022/01/20 10:13:36;;;;;;;2.80;1.25;;;4.70;99.90;;;;;;5035700;28;20556;-64
2022/01/20 10:16:16;;;;;;;1.70;1.25;;;4.80;99.90;;;;;;5053060;28;20048;-63
2022/01/20 10:18:53;;;;;;;2.22;1.60;;;4.90;99.90;;;;;;5053622;28;20112;-63
2022/01/20 10:21:37;;;;;;;2.22;1.40;;;4.90;99.90;;;;;;5053733;28;20112;-63
2022/01/20 10:24:08;;;;;;;3.30;2.60;;;4.80;99.90;;;;;;5035953;28;20428;-63
2022/01/20 10:26:35;;;;;;;2.50;1.40;;;4.90;99.90;;;;;;5053231;28;20104;-63
2022/01/20 10:29:12;;;;;;;2.45;1.48;;;4.90;99.90;;;;;;5053268;28;20114;-63
2022/01/20 10:31:54;;;;;;;2.70;1.58;;;4.90;99.90;;;;;;5035191;28;20473;-63
2022/01/20 10:34:19;;;;;;;4.75;3.05;;;4.80;99.90;;;;;;5053008;28;20033;-63
2022/01/20 10:36:55;;;;;;;1.85;1.60;;;4.70;99.90;;;;;;5053648;28;20066;-63
2022/01/20 10:39:29;;;;;;;1.98;1.48;;;4.80;99.90;;;;;;5039097;28;20115;-63
2022/01/20 10:42:10;;;;;;;2.85;1.38;;;4.90;99.90;;;;;;5056944;28;20142;-63
2022/01/20 10:44:51;;;;;;;2.38;1.48;;;4.80;99.90;;;;;;5039193;28;20029;-63
2022/01/20 10:47:28;;;;;;;2.92;1.42;;;4.80;99.90;;;;;;5039025;28;20155;-63
2022/01/20 10:49:55;;;;;;;2.75;1.95;;;5.30;99.90;;;;;;5056784;28;20036;-63
2022/01/20 10:52:23;;;;;;;2.28;1.63;;;5.60;99.90;;;;;;5038726;28;20037;-63
2022/01/20 10:54:51;;;;;;;3.00;1.73;;;5.90;99.90;;;;;;5056916;28;20056;-62
2022/01/20 10:57:32;;;;;;;3.30;1.52;;;6.10;99.90;;;;;;5056542;28;20029;-63
2022/01/20 11:00:02;;;;;;;2.65;1.42;;;6.40;99.90;;;;;;5056615;28;20047;-63
2022/01/20 11:02:29;;;;;;;1.35;1.25;;;6.30;99.90;;;;;;5056493;28;20065;-63
2022/01/20 11:04:59;;;;;;;3.25;1.45;;;6.70;99.90;;;;;;5056769;28;20385;-63
2022/01/20 11:07:25;;;;;;;3.08;1.70;;;6.60;99.90;;;;;;5056335;28;20025;-64
2022/01/20 11:09:59;;;;;;;3.22;1.80;;;6.50;99.90;;;;;;5066343;28;20400;-63
2022/01/20 11:12:25;;;;;;;1.90;1.70;;;6.50;99.90;;;;;;5076319;28;20087;-63
2022/01/20 11:14:53;;;;;;;1.38;1.27;;;6.20;99.90;;;;;;5075016;28;20480;-63
2022/01/20 11:17:27;;;;;;;1.63;1.13;;;6.10;99.90;;;;;;5076280;28;20525;-63
2022/01/20 11:19:56;;;;;;;3.65;1.60;;;5.90;99.90;;;;;;5074742;28;20024;-63
2022/01/20 11:22:22;;;;;;;2.72;1.45;;;6.40;99.90;;;;;;5076174;28;20029;-63
2022/01/20 11:25:09;;;;;;;3.42;1.95;;;6.70;99.90;;;;;;5076251;28;20377;-63
2022/01/20 11:27:42;;;;;;;6.07;1.65;;;7.40;99.90;;;;;;5076196;28;20090;-62
2022/01/20 11:30:17;;;;;;;4.97;1.10;;;8.00;99.90;;;;;;5076192;28;20048;-62
2022/01/20 11:32:46;;;;;;;2.53;1.40;;;8.40;99.90;;;;;;5075935;28;20024;-63
2022/01/20 11:35:13;;;;;;;3.25;1.20;;;8.40;99.90;;;;;;5076002;28;20025;-63
2022/01/20 11:37:54;;;;;;;3.25;1.38;;;8.60;99.90;;;;;;5074630;28;20032;-63
2022/01/20 11:40:23;;;;;;;3.75;1.13;;;7.80;99.90;;;;;;5075931;28;20040;-62
2022/01/20 11:43:15;;;;;;;2.65;1.33;;;7.10;99.90;;;;;;5075754;28;20025;-63
2022/01/20 11:45:50;;;;;;;7.53;1.23;;;6.50;99.90;;;;;;5072519;28;20181;-63
2022/01/20 11:48:21;;;;;;;2.40;1.27;;;7.30;99.90;;;;;;5074306;28;20028;-62
2022/01/20 11:51:03;;;;;;;9.02;1.60;;;7.80;99.90;;;;;;5074932;28;20025;-64
2022/01/20 11:53:41;;;;;;;1.55;0.60;;;8.10;99.90;;;;;;5075634;28;20025;-63
2022/01/20 11:56:09;;;;;;;2.45;0.75;;;8.50;99.90;;;;;;5074395;28;20033;-63
2022/01/20 11:58:35;;;;;;;0.63;0.63;;;8.70;99.40;;;;;;5075445;28;20032;-63
2022/01/20 12:01:05;;;;;;;1.23;1.02;;;8.80;98.70;;;;;;5075480;28;20349;-63
2022/01/20 12:03:34;;;;;;;3.33;1.23;;;8.80;98.30;;;;;;5075357;28;20032;-63
2022/01/20 12:06:04;;;;;;;1.90;1.00;;;8.70;98.20;;;;;;5075553;28;20025;-63
2022/01/20 12:08:30;;;;;;;3.35;0.85;;;8.10;98.50;;;;;;5073906;28;20477;-63
2022/01/20 12:11:01;;;;;;;6.72;1.13;;;7.70;99.90;;;;;;5074861;28;20035;-63
2022/01/20 12:13:27;;;;;;;3.70;1.60;;;7.80;99.90;;;;;;5075264;28;20457;-63
2022/01/20 12:15:58;;;;;;;2.88;0.88;;;7.60;99.90;;;;;;5074589;28;20376;-63
2022/01/20 12:18:24;;;;;;;2.15;1.00;;;8.00;99.90;;;;;;5074359;28;20119;-64
2022/01/20 12:20:50;;;;;;;2.22;1.17;;;8.20;98.60;;;;;;5073551;28;20027;-63
2022/01/20 12:23:17;;;;;;;2.28;1.30;;;8.30;99.00;;;;;;5073537;28;20024;-62
2022/01/20 12:25:43;;;;;;;5.85;0.93;;;8.60;98.10;;;;;;5075044;28;20027;-63
2022/01/20 12:28:12;;;;;;;1.77;1.17;;;8.80;97.10;;;;;;5074916;28;20431;-63
2022/01/20 12:30:40;;;;;;;;;;;8.50;97.40;;;;;;5075277;28;20051;-63
2022/01/20 12:33:15;;;;;;;2.15;0.90;;;8.50;97.80;;;;;;5074695;28;19908;-63
2022/01/20 12:35:51;;;;;;;1.27;0.98;;;8.60;97.20;;;;;;5057673;28;20126;-63
2022/01/20 12:38:27;;;;;;;3.58;1.48;;;7.80;99.40;;;;;;5073427;28;20036;-63
2022/01/20 12:41:01;;;;;;;2.92;1.20;;;7.30;99.90;;;;;;5074523;28;20055;-63
2022/01/20 12:44:05;;;;;;;0.85;0.82;;;6.70;99.90;;;;;;5074662;28;20104;-64
2022/01/20 12:46:36;;;;;;;1.52;0.95;;;6.30;99.90;;;;;;5074717;28;20066;-63
2022/01/20 12:49:08;;;;;;;1.55;1.10;;;6.10;99.90;;;;;;5074054;28;20391;-64
2022/01/20 12:51:53;;;;;;;0.90;0.75;;;5.90;99.90;;;;;;5074737;28;20032;-63
2022/01/20 12:54:26;;;;;;;7.13;1.30;;;5.80;99.90;;;;;;5074774;28;20055;-63
2022/01/20 12:56:53;;;;;;;3.22;1.15;;;5.70;99.90;;;;;;5075008;28;20116;-63
2022/01/20 12:59:26;;;;;;;2.25;0.88;;;5.70;99.90;;;;;;5074053;28;20020;-63
2022/01/20 13:01:54;;;;;;;2.38;1.13;;;5.80;99.90;;;;;;5072664;28;20032;-63
2022/01/20 13:04:23;;;;;;;3.38;0.85;;;5.70;99.90;;;;;;5073972;28;20028;-63
2022/01/20 13:06:56;;;;;;;3.40;1.23;;;5.70;99.90;;;;;;5073609;28;20033;-64
2022/01/20 13:09:24;;;;;;;2.10;1.15;;;5.70;99.90;;;;;;5073391;28;20682;-63
2022/01/20 13:11:59;;;;;;;2.05;1.15;;;5.70;99.90;;;;;;5073523;28;20483;-63
2022/01/20 13:14:44;;;;;;;4.18;0.95;;;5.70;99.90;;;;;;5075001;28;20060;-63
2022/01/20 13:17:19;;;;;;;3.65;0.95;;;5.70;99.90;;;;;;5075028;28;20024;-64
2022/01/20 13:19:47;;;;;;;4.82;1.23;;;5.60;99.90;;;;;;5072956;28;20032;-63
2022/01/20 13:22:20;;;;;;;2.47;0.85;;;5.70;99.90;;;;;;5074387;28;20112;-63
2022/01/20 13:24:46;;;;;;;2.83;1.23;;;5.60;99.90;;;;;;5074635;28;20464;-63
2022/01/20 13:27:13;;;;;;;3.33;1.20;;;5.70;99.90;;;;;;5074082;28;20025;-63
2022/01/20 13:29:42;;;;;;;3.13;0.98;;;5.70;99.90;;;;;;5074165;28;20524;-63
2022/01/20 13:32:08;;;;;;;1.90;1.20;;;5.80;99.90;;;;;;5074200;28;20032;-63
2022/01/20 13:34:35;;;;;;;1.33;0.90;;;5.90;99.90;;;;;;5074346;28;20357;-63
2022/01/20 13:37:02;;;;;;;1.63;0.80;;;5.80;99.90;;;;;;5074139;28;20070;-63
2022/01/20 13:39:36;;;;;;;5.80;0.95;;;5.80;99.90;;;;;;5073693;28;20033;-63
2022/01/20 13:42:09;;;;;;;1.48;1.10;;;5.90;99.90;;;;;;5073781;28;20067;-63
2022/01/20 13:47:18;;;;;;;5.60;1.20;;;6.60;99.90;;;;;;5073947;28;20081;-63
2022/01/20 13:49:53;;;;;;;1.85;0.95;;;6.80;99.90;;;;;;5072510;28;20119;-63
2022/01/20 13:52:20;;;;;;;2.05;0.75;;;6.80;99.90;;;;;;5072319;28;20526;-63
2022/01/20 13:54:53;;;;;;;3.50;0.85;;;6.60;99.90;;;;;;5073612;28;20032;-63
2022/01/20 13:57:20;;;;;;;3.85;0.90;;;6.40;99.90;;;;;;5072406;28;20110;-63
2022/01/20 13:59:58;;;;;;;4.05;0.88;;;6.40;99.90;;;;;;5073613;28;20063;-63
2022/01/20 14:02:25;;;;;;;4.00;0.95;;;6.30;99.90;;;;;;5073682;28;20025;-63
2022/01/20 14:04:52;;;;;;;0.88;0.80;;;6.10;99.90;;;;;;5073562;28;20020;-63
2022/01/20 14:07:20;;;;;;;1.75;0.85;;;6.00;99.90;;;;;;5073672;28;20104;-63
2022/01/20 14:09:47;;;;;;;1.08;0.28;;;5.90;99.90;;;;;;5059328;28;20045;-62
2022/01/20 14:12:13;;;;;;;0.10;0.10;;;5.20;99.90;;;;;;5055086;28;20036;-63
2022/01/20 14:14:38;;;;;;;1.25;0.30;;;4.30;99.90;;;;;;5058233;28;20037;-63
2022/01/20 14:17:07;;;;;;;0.35;0.20;;;4.00;99.90;;;;;;5039437;28;20415;-63
2022/01/20 14:19:41;;;;;;;1.58;0.20;;;3.50;99.90;;;;;;5057349;28;20025;-63